Latest Weather Observations for Kuitpo

IDS60901

Issued at 7:21 pm CST Tuesday 30 June 2015 (issued every 10 minutes, with the page automatically refreshed every 10 minutes)

About weather observations | Map of Adelaide area stations | Latest observations for Adelaide area | Other Formats
Station Details ID: 023887 Name: KUITPO FOREST RESERVE Lat: -35.17 Lon: 138.68 Height: 365.0 m
Data from the previous 72 hours. | See also: Recent months at Kuitpo
Date/Time
CST
Tmp

°C
App
Tmp
°C
Dew
Point
°C
Rel
Hum
%
Delta-T

°C
Wind Press
QNH
hPa
Press
MSL
hPa
Rain
since
9 am
mm
Dir
 
Spd
km/h
Gust
km/h
Spd
kts
Gust
kts
30/07:00pm 8.3 6.0 5.6 83 1.2 W 7 9 4 5 1028.7 1029.0 0.0
30/06:30pm 8.4 6.3 5.7 83 1.2 N 6 7 3 4 1028.3 1028.6 0.0
30/06:00pm 8.5 6.4 5.6 82 1.3 W 6 7 3 4 1028.1 1028.3 0.0
30/05:30pm 8.6 7.6 5.7 82 1.3 CALM 0 0 0 0 1027.9 1028.1 0.0
30/05:00pm 8.8 7.9 5.9 82 1.4 CALM 0 0 0 0 1027.8 1028.0 0.0
30/04:30pm 9.0 7.3 5.7 80 1.5 WSW 4 7 2 4 1027.5 1027.8 0.0
30/04:00pm 9.2 6.9 5.8 79 1.6 W 7 11 4 6 1027.4 1027.7 0.0
30/03:30pm 9.6 7.4 6.1 79 1.6 WSW 7 11 4 6 1027.4 1027.7 0.0
30/03:00pm 9.5 7.0 6.4 81 1.5 W 9 13 5 7 1027.4 1027.7 0.0
30/02:30pm 9.4 6.5 6.3 81 1.5 W 11 17 6 9 1027.5 1027.8 0.0
30/02:00pm 9.5 6.5 6.0 79 1.6 W 11 17 6 9 1027.5 1027.8 0.0
30/01:30pm 9.8 6.8 5.8 76 1.9 W 11 17 6 9 1027.8 1028.0 0.0
30/01:00pm 9.7 6.6 5.5 75 2.0 W 11 19 6 10 1027.9 1028.1 0.0
30/12:30pm 9.7 7.0 5.7 76 1.9 W 9 13 5 7 1028.4 1028.7 0.0
30/12:00pm 9.6 6.5 5.4 75 1.9 W 11 15 6 8 1028.6 1028.9 0.0
30/11:30am 9.4 5.9 5.4 76 1.8 W 13 17 7 9 1029.0 1029.3 0.0
30/11:00am 9.1 6.3 5.1 76 1.8 WNW 9 13 5 7 1029.4 1029.7 0.0
30/10:30am 9.0 6.4 4.4 73 2.1 W 7 11 4 6 1029.5 1029.8 0.0
30/10:00am 8.9 6.4 3.7 70 2.3 W 6 9 3 5 1029.6 1029.9 0.0
30/09:30am 8.7 6.1 3.3 69 2.3 NW 6 9 3 5 1029.4 1029.7 0.0
30/09:00am 8.2 5.4 2.0 65 2.6 WNW 6 11 3 6 1029.1 1029.4 0.0
30/08:30am 7.8 4.9 2.7 70 2.2 NNW 7 11 4 6 1028.7 1029.0 0.0
30/08:00am 7.7 4.7 2.0 67 2.4 NNW 7 11 4 6 1028.5 1028.8 0.0
30/07:30am 7.5 4.2 2.6 71 2.1 NW 9 13 5 7 1028.2 1028.5 0.0
30/07:00am 7.4 4.4 4.0 79 1.5 NNE 9 13 5 7 1027.8 1028.0 0.0
30/06:30am 7.8 5.1 2.9 71 2.1 NNW 6 7 3 4 1027.8 1028.0 0.0
30/06:00am 7.0 4.5 4.5 84 1.1 SE 7 11 4 6 1027.8 1028.0 0.0
30/05:30am 7.5 5.0 3.9 78 1.6 N 6 9 3 5 1027.3 1027.6 0.0
30/05:00am 8.3 6.0 2.8 68 2.4 WSW 4 6 2 3 1027.3 1027.6 0.0
30/04:30am 8.3 5.4 2.8 68 2.4 WSW 7 7 4 4 1027.2 1027.5 0.0
30/04:00am 8.5 5.6 2.5 66 2.6 W 7 9 4 5 1027.1 1027.4 0.0
30/03:30am 8.3 5.6 2.5 67 2.5 WSW 6 7 3 4 1027.2 1027.5 0.0
30/03:00am 8.6 7.0 2.6 66 2.6 CALM 0 0 0 0 1027.3 1027.6 0.0
30/02:30am 8.5 5.9 3.1 69 2.3 S 6 9 3 5 1027.2 1027.5 0.0
30/02:00am 8.6 5.8 3.0 68 2.4 W 7 9 4 5 1027.4 1027.7 0.0
30/01:30am 8.9 6.2 2.7 65 2.7 WSW 6 13 3 7 1027.6 1027.9 0.0
30/01:00am 8.8 6.1 2.8 66 2.6 SSE 6 6 3 3 1027.8 1028.0 0.0
30/12:30am 8.4 7.0 3.8 73 2.0 CALM 0 0 0 0 1028.1 1028.3 0.0
30/12:00am 8.2 6.6 4.4 77 1.7 SE 2 9 1 5 1028.5 1028.8 0.0
 
Date/Time
CST
Tmp

°C
App
Tmp
°C
Dew
Point
°C
Rel
Hum
%
Delta-T

°C
Wind Press
QNH
hPa
Press
MSL
hPa
Rain
since
9 am
mm
Dir
 
Spd
km/h
Gust
km/h
Spd
kts
Gust
kts
29/11:30pm 8.2 6.2 4.2 76 1.8 ESE 4 9 2 5 1028.7 1029.0 0.0
29/11:00pm 8.7 7.3 3.3 69 2.4 CALM 0 6 0 3 1028.7 1029.0 0.0
29/10:30pm 8.4 5.9 4.0 74 1.9 ENE 6 9 3 5 1028.7 1029.0 0.0
29/10:00pm 9.1 7.7 3.5 68 2.5 CALM 0 4 0 2 1028.7 1029.0 0.0
29/09:30pm 8.8 6.3 4.0 72 2.1 NE 6 9 3 5 1028.9 1029.2 0.0
29/09:00pm 8.9 7.6 3.9 71 2.2 CALM 0 0 0 0 1029.1 1029.4 0.0
29/08:30pm 8.7 7.4 4.1 73 2.0 CALM 0 0 0 0 1029.1 1029.4 0.0
29/08:00pm 8.6 6.3 4.8 77 1.7 ESE 6 7 3 4 1029.1 1029.4 0.0
29/07:30pm 8.6 7.1 5.2 79 1.5 E 2 7 1 4 1029.0 1029.3 0.0
29/07:00pm 8.8 7.6 4.6 75 1.9 CALM 0 0 0 0 1028.9 1029.2 0.0
29/06:30pm 8.5 6.7 5.6 82 1.3 WSW 4 7 2 4 1028.7 1029.0 0.0
29/06:00pm 8.8 7.4 5.5 80 1.5 SSW 2 7 1 4 1028.4 1028.7 0.0
29/05:30pm 9.0 7.2 5.6 79 1.6 WSW 4 7 2 4 1028.3 1028.6 0.0
29/05:00pm 9.5 7.3 3.5 66 2.7 ESE 4 7 2 4 1028.2 1028.5 0.0
29/04:30pm 9.9 7.1 3.2 63 2.9 E 7 11 4 6 1028.4 1028.7 0.0
29/04:00pm 10.1 7.6 3.8 65 2.8 ENE 6 7 3 4 1028.5 1028.8 0.0
29/03:30pm 10.3 7.1 3.3 62 3.1 ESE 9 11 5 6 1028.6 1028.9 0.0
29/03:00pm 10.7 8.5 3.3 60 3.3 NE 4 6 2 3 1028.7 1029.0 0.0
29/02:30pm 11.0 9.3 3.8 61 3.2 NE 2 7 1 4 1028.9 1029.2 0.0
29/02:00pm 10.7 8.3 4.4 65 2.9 ESE 6 9 3 5 1029.0 1029.3 0.0
29/01:30pm 10.6 8.5 4.1 64 2.9 ESE 4 9 2 5 1029.3 1029.6 0.0
29/01:00pm 10.6 8.1 3.9 63 3.0 E 6 9 3 5 1029.8 1030.1 0.0
29/12:30pm 10.8 8.1 3.6 61 3.2 NE 7 9 4 5 1030.3 1030.6 0.0
29/12:00pm 10.9 8.2 3.9 62 3.1 N 7 11 4 6 1030.9 1031.2 0.0
29/11:30am 11.0 8.5 4.0 62 3.2 NNE 6 7 3 4 1031.3 1031.6 0.0
29/11:00am 10.5 7.4 3.8 63 3.0 E 9 13 5 7 1031.6 1031.9 0.0
29/10:30am 10.5 8.0 4.9 68 2.6 E 7 9 4 5 1031.8 1032.1 0.0
29/10:00am 9.9 7.3 4.1 67 2.6 ENE 7 9 4 5 1031.9 1032.2 0.0
29/09:30am 9.1 6.5 4.3 72 2.1 E 7 9 4 5 1031.8 1032.1 0.0
29/09:00am 8.9 6.3 4.3 73 2.0 E 7 9 4 5 1031.7 1032.0 0.0
29/08:30am 8.6 5.6 4.0 73 2.0 E 9 11 5 6 1031.6 1031.9 0.0
29/08:00am 8.0 4.9 3.5 73 2.0 ENE 9 11 5 6 1031.5 1031.8 0.0
29/07:30am 7.9 4.3 3.2 72 2.0 ENE 11 13 6 7 1031.3 1031.6 0.0
29/07:00am 8.3 4.7 3.2 70 2.2 ENE 11 15 6 8 1031.1 1031.4 0.0
29/06:30am 8.5 4.5 2.9 68 2.4 E 13 15 7 8 1030.9 1031.2 0.0
29/06:00am 8.5 4.5 3.1 69 2.3 E 13 17 7 9 1030.5 1030.9 0.0
29/05:30am 8.4 4.5 3.3 70 2.2 E 13 15 7 8 1030.4 1030.8 0.0
29/05:00am 8.3 4.4 3.6 72 2.1 E 13 17 7 9 1030.4 1030.8 0.0
29/04:30am 8.0 4.2 4.0 76 1.8 E 13 15 7 8 1030.5 1030.9 0.0
29/04:00am 8.2 4.5 4.2 76 1.8 E 13 15 7 8 1030.9 1031.2 0.0
29/03:30am 8.2 4.5 4.4 77 1.7 E 13 17 7 9 1031.0 1031.3 0.0
29/03:00am 8.0 4.3 4.2 77 1.7 E 13 17 7 9 1031.2 1031.5 0.0
29/02:30am 7.9 4.1 3.9 76 1.7 E 13 15 7 8 1031.2 1031.5 0.0
29/02:00am 8.4 4.6 3.8 73 2.0 E 13 17 7 9 1031.2 1031.5 0.0
29/01:30am 8.9 5.0 3.5 69 2.4 E 13 19 7 10 1031.3 1031.6 0.0
29/01:00am 9.1 5.2 3.3 67 2.6 E 13 17 7 9 1031.4 1031.7 0.0
29/12:30am 9.1 5.2 3.3 67 2.5 E 13 17 7 9 1031.7 1032.0 0.0
29/12:00am 9.6 5.6 3.1 64 2.8 E 13 20 7 11 1032.0 1032.3 0.0
 
Date/Time
CST
Tmp

°C
App
Tmp
°C
Dew
Point
°C
Rel
Hum
%
Delta-T

°C
Wind Press
QNH
hPa
Press
MSL
hPa
Rain
since
9 am
mm
Dir
 
Spd
km/h
Gust
km/h
Spd
kts
Gust
kts
28/11:30pm 9.7 5.8 3.4 65 2.8 E 13 17 7 9 1032.2 1032.5 0.0
28/11:00pm 8.7 5.0 4.3 74 2.0 E 13 15 7 8 1032.3 1032.6 0.0
28/10:30pm 7.8 4.5 4.4 79 1.5 ESE 11 13 6 7 1032.3 1032.6 0.0
28/10:00pm 7.8 4.4 4.0 77 1.7 E 11 13 6 7 1032.4 1032.7 0.0
28/09:30pm 8.6 4.9 4.2 74 1.9 NE 13 15 7 8 1032.4 1032.7 0.0
28/09:00pm 8.6 5.2 4.0 73 2.0 ENE 11 13 6 7 1032.2 1032.5 0.0
28/08:30pm 8.9 5.1 4.1 72 2.1 ENE 13 17 7 9 1032.2 1032.5 0.0
28/08:00pm 9.0 5.3 4.2 72 2.2 ENE 13 15 7 8 1032.2 1032.5 0.0
28/07:30pm 9.4 5.7 4.4 71 2.2 ENE 13 15 7 8 1032.2 1032.5 0.0
28/07:00pm 9.4 5.3 4.4 71 2.3 ENE 15 19 8 10 1032.1 1032.4 0.0
28/06:30pm 9.5 5.8 4.5 71 2.2 E 13 15 7 8 1032.0 1032.3 0.0
28/06:00pm 9.4 6.1 4.8 73 2.1 E 11 13 6 7 1031.7 1032.0 0.0
28/05:30pm 9.7 6.4 4.7 71 2.3 E 11 11 6 6 1031.4 1031.7 0.0
28/05:00pm 10.3 7.1 4.9 69 2.5 E 11 13 6 7 1031.4 1031.7 0.0
28/04:30pm 10.8 8.0 5.1 68 2.6 E 9 11 5 6 1031.5 1031.8 0.0
28/04:00pm 12.0 9.5 4.7 61 3.4 ESE 7 9 4 5 1031.6 1031.9 0.0
28/03:30pm 12.2 9.7 4.7 60 3.5 E 7 19 4 10 1031.6 1031.9 0.0
28/03:00pm 12.2 8.6 4.9 61 3.4 E 13 19 7 10 1031.6 1031.9 0.0
28/02:30pm 12.2 9.0 4.9 61 3.4 E 11 15 6 8 1031.6 1031.9 0.0
28/02:00pm 12.9 8.9 5.1 59 3.7 E 15 20 8 11 1031.7 1032.0 0.0
28/01:30pm 12.8 9.9 4.8 58 3.7 E 9 13 5 7 1031.8 1032.1 0.0
28/01:00pm 12.7 9.0 4.4 57 3.9 ENE 13 19 7 10 1032.1 1032.4 0.0
28/12:30pm 13.0 9.9 5.4 60 3.6 ENE 11 17 6 9 1032.3 1032.6 0.0
28/12:00pm 12.4 8.4 4.9 60 3.5 ENE 15 22 8 12 1032.8 1033.2 0.0
28/11:30am 12.4 8.9 5.3 62 3.3 ENE 13 22 7 12 1033.1 1033.5 0.0
28/11:00am 12.4 9.0 5.8 64 3.2 ENE 13 20 7 11 1033.6 1033.9 0.0
28/10:30am 11.9 8.5 6.0 67 2.8 NE 13 17 7 9 1033.6 1033.9 0.0
28/10:00am 10.9 7.6 6.3 73 2.2 NE 13 17 7 9 1033.6 1033.9 0.0
28/09:30am 9.8 6.7 5.6 75 1.9 NE 11 15 6 8 1033.6 1033.9 0.0
28/09:00am 9.6 6.9 5.8 77 1.8 NE 9 15 5 8 1033.3 1033.7 0.0
28/08:30am 8.6 5.0 5.2 79 1.5 ENE 13 15 7 8 1033.2 1033.6 0.0
28/08:00am 8.2 4.6 5.1 81 1.4 ENE 13 17 7 9 1032.9 1033.3 0.0
28/07:30am 7.9 3.9 5.0 82 1.3 NE 15 17 8 9 1032.7 1033.0 0.0
28/07:00am 7.7 3.8 5.5 86 1.0 ENE 15 17 8 9 1032.4 1032.7 0.0
28/06:30am 7.6 4.7 4.9 83 1.2 ENE 9 11 5 6 1032.1 1032.4 0.0
28/06:00am 8.0 5.2 5.1 82 1.3 ENE 9 11 5 6 1031.8 1032.1 0.0
28/05:30am 8.3 5.6 5.4 82 1.3 NE 9 11 5 6 1031.7 1032.0 0.0
28/05:00am 8.1 5.3 5.2 82 1.3 NE 9 11 5 6 1031.5 1031.8 0.0
28/04:30am 7.9 5.1 5.2 83 1.2 NE 9 13 5 7 1031.5 1031.8 0.0
28/04:00am 7.9 5.4 5.0 82 1.3 NE 7 9 4 5 1031.6 1031.9 0.0
28/03:30am 7.7 5.3 5.2 84 1.1 NNE 7 11 4 6 1031.6 1031.9 0.0
28/03:00am 7.7 5.3 5.2 84 1.1 NNE 7 11 4 6 1031.9 1032.2 0.0
28/02:30am 7.8 5.1 5.4 85 1.1 NNE 9 11 5 6 1031.9 1032.2 0.0
28/02:00am 8.4 5.8 5.9 84 1.2 NE 9 11 5 6 1031.9 1032.2 0.0
28/01:30am 9.1 6.5 6.0 81 1.4 ENE 9 11 5 6 1031.8 1032.1 0.0
28/01:00am 9.0 7.0 6.4 84 1.2 E 6 7 3 4 1031.9 1032.2 0.0
28/12:30am 8.8 6.6 6.2 84 1.2 ESE 7 11 4 6 1031.8 1032.1 0.0
28/12:00am 8.9 6.9 6.3 84 1.2 SE 6 7 3 4 1031.9 1032.2 0.0
 
Date/Time
CST
Tmp

°C
App
Tmp
°C
Dew
Point
°C
Rel
Hum
%
Delta-T

°C
Wind Press
QNH
hPa
Press
MSL
hPa
Rain
since
9 am
mm
Dir
 
Spd
km/h
Gust
km/h
Spd
kts
Gust
kts
27/11:30pm 8.7 6.7 6.3 85 1.1 SE 6 7 3 4 1031.9 1032.2 0.0
27/11:00pm 8.5 6.5 6.3 86 1.0 SE 6 7 3 4 1032.1 1032.4 0.0
27/10:30pm 8.9 8.1 6.3 84 1.2 CALM 0 0 0 0 1032.1 1032.4 0.0
27/10:00pm 8.6 6.6 6.1 84 1.2 SSW 6 9 3 5 1032.1 1032.4 0.0
27/09:30pm 8.6 6.6 6.4 86 1.0 SSE 6 7 3 4 1032.1 1032.4 0.0
27/09:00pm 8.6 6.6 7.1 90 0.7 SSE 7 9 4 5 1032.1 1032.4 0.0
27/08:30pm 9.0 7.1 6.6 85 1.1 SSE 6 7 3 4 1032.1 1032.4 0.0
27/08:00pm 8.8 8.0 6.6 86 1.0 CALM 0 0 0 0 1032.1 1032.4 0.0
27/07:30pm 8.6 7.8 6.6 87 0.9 CALM 0 0 0 0 1032.1 1032.4 0.0

Latest Capital City Observations: Canberra | Sydney | Melbourne | Brisbane | Adelaide | Perth | Hobart | Darwin

Other Formats:

Comma delimited format used in spreadsheet applications
http://www.bom.gov.au/fwo/IDS60901/IDS60901.94683.axf

JavaScript Object Notation format (JSON) in row-major order
http://www.bom.gov.au/fwo/IDS60901/IDS60901.94683.json